Portada
METAR-TAF:

METAR-TAF

Aeroports :

Kasumigaura, Japó

latitud: 36-02N, longitud: 140-12E, altitud: 26 m

Observació

L'informe es va fer fa 6 hores i 29 minuts, a les 04:48 UTC
Vent 10 kt del Sud/Sud-Oest amb ràfegues de 20 kt
Temperatura 12°C
Humitat 28%
Pressió 1020 hPa
Visibilitat 10 km o més
Escasses núvols a una alçada de 4000 ft

METAR: RJAK 210448Z 20010G20KT 9999 FEW040 12/M06 Q1020 RMK 1CU040 A3013

Hora: 20:17 (11:17 UTC)


TAF: manca

Observacions i pronòstics meteorològics de més de 4000 aeroports (METAR i TAF).

Les estacions disponibles són els punts grocs i vermells al mapa.

Posi el ratolí al punt desitjat per veure el nom de l'estació.

Feu clic per veure les observacions i els pronòstics meteorològics.

Per canviar el mapa: feu clic els botons verds amb una creu de color negre per apropar; al botó verd amb un guió per allunyar la imatge; o en les fletxes verdes per a mapes adjacents.


METAR-TAF: